Terminal Aerodrome Forecast
Issued by NWS Sterling, VA

Current Version | Previous Version | Graphics & Text | Print | Product List | Glossary On
Versions: 1 2 3 4 5 6 7 8 9 10 11 12 13 14 15 16 17 18 19 20 21 22 23 24 25 26 27 28 29
932
FTUS41 KLWX 171120
TAFIAD
TAF
KIAD 171120Z 1712/1818 VRB03KT 6SM BR VCSH OVC007
     FM171330 VRB03KT 3SM -SHRA BR OVC006
     FM171600 16004KT 3SM -SHRA BR OVC011
     FM172100 19009KT P6SM BKN015
     FM180000 19007KT 6SM BR BKN008
     FM180900 28005KT 6SM BR BKN050
     FM181500 30010KT P6SM BKN045=

USA.gov is the U.S. government's official web portal to all federal, state and local government web resources and services.